createdAt,value
2023-01-21T00:01:52.516Z,64.13
2023-01-21T00:04:20.574Z,60.70
2023-01-21T00:06:49.301Z,63.17
2023-01-21T00:09:18.825Z,59.33
2023-01-21T00:11:47.012Z,58.30
2023-01-21T00:14:15.286Z,66.80
2023-01-21T00:16:43.425Z,60.67
2023-01-21T00:19:11.820Z,61.27
2023-01-21T00:21:39.871Z,68.00
2023-01-21T00:24:08.271Z,65.40
2023-01-21T00:26:37.957Z,67.73
2023-01-21T00:29:06.105Z,69.43
2023-01-21T00:31:34.258Z,63.03
2023-01-21T00:34:02.351Z,70.20
2023-01-21T00:36:30.421Z,69.03
2023-01-21T00:38:59.663Z,69.13
2023-01-21T00:41:27.665Z,63.67
2023-01-21T00:43:57.052Z,61.80
2023-01-21T00:46:25.375Z,68.97
2023-01-21T00:48:53.330Z,69.57
2023-01-21T00:51:21.320Z,67.57
2023-01-21T00:53:49.325Z,70.67
2023-01-21T00:56:17.428Z,63.47
2023-01-21T00:58:45.746Z,53.63
2023-01-21T01:01:18.015Z,65.97
2023-01-21T01:03:47.026Z,60.27
2023-01-21T01:06:17.059Z,62.03
2023-01-21T01:08:46.695Z,65.37
2023-01-21T01:11:15.682Z,68.37
2023-01-21T01:13:44.599Z,65.47
2023-01-21T01:16:16.368Z,71.83
2023-01-21T01:18:45.533Z,65.10
2023-01-21T01:21:15.338Z,59.33
2023-01-21T01:23:44.156Z,68.07
2023-01-21T01:26:15.053Z,65.43
2023-01-21T01:28:43.502Z,65.50
2023-01-21T01:31:16.817Z,66.73
2023-01-21T01:33:45.287Z,63.40
2023-01-21T01:36:16.190Z,68.97
2023-01-21T01:38:45.028Z,79.20
2023-01-21T01:41:17.626Z,69.37
2023-01-21T01:43:51.780Z,68.80
2023-01-21T01:46:21.635Z,74.93
2023-01-21T01:48:56.061Z,76.80
2023-01-21T01:51:30.252Z,74.30
2023-01-21T01:53:58.699Z,80.17
2023-01-21T01:56:27.513Z,77.17
2023-01-21T01:58:55.650Z,73.43
2023-01-21T02:01:26.446Z,73.37
2023-01-21T02:03:59.683Z,71.07
2023-01-21T02:06:28.503Z,71.67
2023-01-21T02:08:58.167Z,74.57
2023-01-21T02:11:26.189Z,68.50
2023-01-21T02:13:58.977Z,79.77
2023-01-21T02:16:51.082Z,78.00
2023-01-21T02:19:48.072Z,72.40
2023-01-21T02:22:24.182Z,70.53
2023-01-21T02:25:30.953Z,75.50
2023-01-21T02:28:37.858Z,68.93
2023-01-21T02:31:30.374Z,64.00
2023-01-21T02:34:11.237Z,76.73
2023-01-21T02:36:55.256Z,68.73
2023-01-21T02:39:34.203Z,65.17
2023-01-21T02:42:06.701Z,68.67
2023-01-21T02:44:40.887Z,62.07
2023-01-21T02:47:17.911Z,67.40
2023-01-21T02:49:51.539Z,69.67
2023-01-21T02:52:21.093Z,73.80
2023-01-21T02:54:51.807Z,81.50
2023-01-21T02:57:28.050Z,74.37
2023-01-21T02:59:57.697Z,82.37
2023-01-21T03:02:39.511Z,77.60
2023-01-21T03:05:14.539Z,75.67
2023-01-21T03:07:49.049Z,72.57
2023-01-21T03:10:23.952Z,76.67
2023-01-21T03:13:00.508Z,76.57
2023-01-21T03:15:49.749Z,73.40
2023-01-21T03:18:21.747Z,75.70
2023-01-21T03:20:56.227Z,61.87
2023-01-21T03:23:29.536Z,76.13
2023-01-21T03:25:59.847Z,70.97
2023-01-21T03:28:33.046Z,71.73
2023-01-21T03:31:06.721Z,72.97
2023-01-21T03:33:38.988Z,65.57
2023-01-21T03:36:13.189Z,68.30
2023-01-21T03:38:46.130Z,68.23
2023-01-21T03:41:18.746Z,76.17
2023-01-21T03:43:47.009Z,76.30
2023-01-21T03:46:21.912Z,70.37
2023-01-21T03:48:55.656Z,70.33
2023-01-21T03:51:34.557Z,72.87
2023-01-21T03:54:02.527Z,72.77
2023-01-21T03:56:30.830Z,71.17
2023-01-21T03:58:59.289Z,70.93
2023-01-21T04:01:27.398Z,73.87
2023-01-21T04:03:55.653Z,68.37
2023-01-21T04:06:25.679Z,66.60
2023-01-21T04:08:53.778Z,69.23
2023-01-21T04:11:21.720Z,72.30
2023-01-21T04:13:49.811Z,75.03
2023-01-21T04:16:18.139Z,71.87
2023-01-21T04:18:47.663Z,73.10
2023-01-21T04:21:16.167Z,72.47
2023-01-21T04:23:45.854Z,73.40
2023-01-21T04:26:13.925Z,64.13
2023-01-21T04:28:42.118Z,65.27
2023-01-21T04:31:10.240Z,67.37
2023-01-21T04:33:38.905Z,64.27
2023-01-21T04:36:07.423Z,65.97
2023-01-21T04:38:35.489Z,61.43
2023-01-21T04:41:04.992Z,60.03
2023-01-21T04:43:33.217Z,60.67
2023-01-21T04:46:01.333Z,68.93
2023-01-21T04:48:29.706Z,61.70
2023-01-21T04:50:57.789Z,64.93
2023-01-21T04:53:25.987Z,60.73
2023-01-21T04:55:54.143Z,58.87
2023-01-21T04:58:23.741Z,68.07
2023-01-21T05:00:51.998Z,62.43
2023-01-21T05:03:20.077Z,58.03
2023-01-21T05:05:48.327Z,64.70
2023-01-21T05:08:16.388Z,65.50
2023-01-21T05:10:44.528Z,57.60
2023-01-21T05:13:13.096Z,60.27
2023-01-21T05:15:43.076Z,65.23
2023-01-21T05:18:11.148Z,58.53
2023-01-21T05:20:39.286Z,68.13
2023-01-21T05:23:07.446Z,57.27
2023-01-21T05:25:36.215Z,54.03
2023-01-21T05:28:04.477Z,54.67
2023-01-21T05:30:32.635Z,59.23
2023-01-21T05:33:02.123Z,57.20
2023-01-21T05:35:30.222Z,59.10
2023-01-21T05:38:00.316Z,57.43
2023-01-21T05:40:28.644Z,56.03
2023-01-21T05:42:56.773Z,62.47
2023-01-21T05:45:25.007Z,66.07
2023-01-21T05:47:53.182Z,73.17
2023-01-21T05:50:22.623Z,67.70
2023-01-21T05:52:50.695Z,67.30
2023-01-21T05:55:18.895Z,73.10
2023-01-21T05:57:47.006Z,74.43
2023-01-21T06:00:16.866Z,69.93
2023-01-21T06:02:45.245Z,70.67
2023-01-21T06:05:13.366Z,75.27
2023-01-21T06:07:42.826Z,66.13
2023-01-21T06:10:11.911Z,72.30
2023-01-21T06:12:40.401Z,60.03
2023-01-21T06:15:09.742Z,56.70
2023-01-21T06:17:41.698Z,60.63
2023-01-21T06:20:11.796Z,62.10
2023-01-21T06:22:40.167Z,58.77
2023-01-21T06:25:10.954Z,59.53
2023-01-21T06:27:42.201Z,65.03
2023-01-21T06:30:12.365Z,51.63
2023-01-21T06:32:40.784Z,57.50
2023-01-21T06:35:09.999Z,52.23
2023-01-21T06:37:38.617Z,55.53
2023-01-21T06:40:10.848Z,60.90
2023-01-21T06:42:39.320Z,57.83
2023-01-21T06:45:09.244Z,58.63
2023-01-21T06:47:37.929Z,59.43
2023-01-21T06:50:06.971Z,57.07
2023-01-21T06:52:35.163Z,52.60
2023-01-21T06:55:03.342Z,58.17
2023-01-21T06:57:32.921Z,52.93
2023-01-21T07:00:01.199Z,52.07
2023-01-21T07:02:29.436Z,52.23
2023-01-21T07:04:59.188Z,54.07
2023-01-21T07:07:27.388Z,49.97
2023-01-21T07:09:55.528Z,55.07
2023-01-21T07:12:23.762Z,51.83
2023-01-21T07:14:54.276Z,56.03
2023-01-21T07:17:23.217Z,46.77
2023-01-21T07:19:51.389Z,47.20
2023-01-21T07:22:19.491Z,50.43
2023-01-21T07:24:48.077Z,48.53
2023-01-21T07:27:16.218Z,52.17
2023-01-21T07:29:44.563Z,51.10
2023-01-21T07:32:14.021Z,47.47
2023-01-21T07:34:42.001Z,51.73
2023-01-21T07:37:09.981Z,47.03
2023-01-21T07:39:38.447Z,47.50
2023-01-21T07:42:06.643Z,52.50
2023-01-21T07:44:34.909Z,50.90
2023-01-21T07:47:03.997Z,45.43
2023-01-21T07:49:33.606Z,50.47
2023-01-21T07:52:01.762Z,48.67
2023-01-21T07:54:30.233Z,53.63
2023-01-21T07:56:58.416Z,50.37
2023-01-21T07:59:26.529Z,51.67
2023-01-21T08:01:54.757Z,46.47
2023-01-21T08:04:24.163Z,50.20
2023-01-21T08:06:57.106Z,50.13
2023-01-21T08:09:25.589Z,54.10
2023-01-21T08:11:53.883Z,52.40
2023-01-21T08:14:21.916Z,53.87
2023-01-21T08:16:49.928Z,55.63
2023-01-21T08:19:17.988Z,51.30
2023-01-21T08:21:46.170Z,53.57
2023-01-21T08:24:15.720Z,55.83
2023-01-21T08:26:43.850Z,58.80
2023-01-21T08:29:11.933Z,57.93
2023-01-21T08:31:39.960Z,58.53
2023-01-21T08:34:08.118Z,56.67
2023-01-21T08:36:38.586Z,59.17
2023-01-21T08:39:06.906Z,62.33
2023-01-21T08:41:36.522Z,62.57
2023-01-21T08:44:04.606Z,62.43
2023-01-21T08:46:32.629Z,64.03
2023-01-21T08:49:01.095Z,46.17
2023-01-21T08:51:29.211Z,47.73
2023-01-21T08:53:57.222Z,45.70
2023-01-21T08:56:25.543Z,44.03
2023-01-21T08:58:57.548Z,47.80
2023-01-21T09:01:26.451Z,47.67
2023-01-21T09:04:02.015Z,44.47
2023-01-21T09:06:31.541Z,42.77
2023-01-21T09:08:59.582Z,42.57
2023-01-21T09:11:28.072Z,44.43
2023-01-21T09:13:59.133Z,49.87
2023-01-21T09:16:27.297Z,41.27
2023-01-21T09:18:55.314Z,43.37
2023-01-21T09:21:23.339Z,47.90
2023-01-21T09:23:51.430Z,51.83
2023-01-21T09:26:20.835Z,49.20
2023-01-21T09:28:53.288Z,47.17
2023-01-21T09:31:25.442Z,46.87
2023-01-21T09:33:55.229Z,54.07
2023-01-21T09:36:25.399Z,43.53
2023-01-21T09:38:54.092Z,44.83
2023-01-21T09:41:31.465Z,48.90
2023-01-21T09:44:06.399Z,45.60
2023-01-21T09:46:45.076Z,49.90
2023-01-21T09:49:18.948Z,48.67
2023-01-21T09:51:55.297Z,42.73
2023-01-21T09:54:27.961Z,47.20
2023-01-21T09:57:24.104Z,46.93
2023-01-21T10:00:06.636Z,43.80
2023-01-21T10:02:45.352Z,49.57
2023-01-21T10:05:41.645Z,44.23
2023-01-21T10:08:23.305Z,46.50
2023-01-21T10:10:53.912Z,43.93
2023-01-21T10:13:50.628Z,48.37
2023-01-21T10:16:26.067Z,40.90
2023-01-21T10:18:56.456Z,45.03
2023-01-21T10:21:38.764Z,46.60
2023-01-21T10:24:14.263Z,48.37
2023-01-21T10:26:45.787Z,44.97
2023-01-21T10:29:17.976Z,43.37
2023-01-21T10:31:52.335Z,42.57
2023-01-21T10:34:21.803Z,42.30
2023-01-21T10:37:07.970Z,44.13
2023-01-21T10:39:45.192Z,44.60
2023-01-21T10:42:33.227Z,44.87
2023-01-21T10:45:08.374Z,42.97
2023-01-21T10:47:45.658Z,51.10
2023-01-21T10:50:32.814Z,48.00
2023-01-21T10:53:08.099Z,45.67
2023-01-21T10:55:50.323Z,42.53
2023-01-21T10:58:28.516Z,40.70
2023-01-21T11:00:59.923Z,42.73
2023-01-21T11:03:35.726Z,41.37
2023-01-21T11:06:08.527Z,40.70
2023-01-21T11:08:36.754Z,40.17
2023-01-21T11:11:07.766Z,43.37
2023-01-21T11:13:35.860Z,42.37
2023-01-21T11:16:04.699Z,53.13
2023-01-21T11:18:36.633Z,41.53
2023-01-21T11:21:17.149Z,40.43
2023-01-21T11:23:54.365Z,39.83
2023-01-21T11:26:27.182Z,39.90
2023-01-21T11:29:09.355Z,40.87
2023-01-21T11:31:38.278Z,38.63
2023-01-21T11:34:07.940Z,39.80
2023-01-21T11:36:37.789Z,38.40
2023-01-21T11:39:09.253Z,41.00
2023-01-21T11:41:39.824Z,38.40
2023-01-21T11:44:17.590Z,38.67
2023-01-21T11:46:46.376Z,40.27
2023-01-21T11:49:29.077Z,36.73
2023-01-21T11:52:18.784Z,38.60
2023-01-21T11:54:47.822Z,37.83
2023-01-21T11:57:23.734Z,41.37
2023-01-21T11:59:53.365Z,38.23
2023-01-21T12:02:25.064Z,40.20
2023-01-21T12:04:58.248Z,40.47
2023-01-21T12:07:31.579Z,39.27
2023-01-21T12:10:07.275Z,38.47
2023-01-21T12:12:53.707Z,39.83
2023-01-21T12:15:34.549Z,39.00
2023-01-21T12:18:10.935Z,40.23
2023-01-21T12:20:51.614Z,38.23
2023-01-21T12:23:52.606Z,39.13
2023-01-21T12:26:35.157Z,39.83
2023-01-21T12:29:16.670Z,40.10
2023-01-21T12:31:52.180Z,39.07
2023-01-21T12:34:25.631Z,39.30
2023-01-21T12:36:59.339Z,39.40
2023-01-21T12:39:33.583Z,39.30
2023-01-21T12:42:11.751Z,41.80
2023-01-21T12:44:45.247Z,40.50
2023-01-21T12:47:22.927Z,38.33
2023-01-21T12:50:02.528Z,40.37
2023-01-21T12:52:39.390Z,38.70
2023-01-21T12:55:20.035Z,39.30
2023-01-21T12:57:57.724Z,38.20
2023-01-21T13:00:27.736Z,37.40
2023-01-21T13:03:11.405Z,37.03
2023-01-21T13:05:48.371Z,40.37
2023-01-21T13:08:34.356Z,40.03
2023-01-21T13:11:12.462Z,42.07
2023-01-21T13:13:45.281Z,37.87
2023-01-21T13:16:14.738Z,39.83
2023-01-21T13:18:46.837Z,38.40
2023-01-21T13:21:21.190Z,38.07
2023-01-21T13:23:54.795Z,40.03
2023-01-21T13:26:33.558Z,39.17
2023-01-21T13:29:08.988Z,38.47
2023-01-21T13:31:43.641Z,37.77
2023-01-21T13:34:20.961Z,36.80
2023-01-21T13:37:04.421Z,38.67
2023-01-21T13:39:44.553Z,38.03
2023-01-21T13:42:38.725Z,39.10
2023-01-21T13:52:47.853Z,39.10
2023-01-21T13:55:32.198Z,41.40
2023-01-21T13:58:08.281Z,42.13
2023-01-21T14:00:43.136Z,43.53
2023-01-21T14:03:23.106Z,41.40
2023-01-21T14:05:56.189Z,41.63
2023-01-21T14:08:32.358Z,40.87
2023-01-21T14:11:05.202Z,43.67
2023-01-21T14:14:08.226Z,49.63
2023-01-21T14:17:07.694Z,45.13
2023-01-21T14:20:09.623Z,45.47
2023-01-21T14:22:50.321Z,49.17
2023-01-21T14:25:30.656Z,46.63
2023-01-21T14:28:07.809Z,47.20
2023-01-21T14:30:44.452Z,45.13
2023-01-21T14:33:17.026Z,50.43
2023-01-21T14:35:50.874Z,44.07
2023-01-21T14:38:29.990Z,45.07
2023-01-21T14:41:06.331Z,45.80
2023-01-21T14:43:52.613Z,48.20
2023-01-21T14:46:31.482Z,43.07
2023-01-21T14:49:06.509Z,42.20
2023-01-21T14:51:39.380Z,45.17
2023-01-21T14:54:14.337Z,46.83
2023-01-21T14:56:53.845Z,48.33
2023-01-21T14:59:33.723Z,45.53
2023-01-21T15:02:05.504Z,55.93
2023-01-21T15:04:37.555Z,47.63
2023-01-21T15:07:12.086Z,45.40
2023-01-21T15:09:45.475Z,46.30
2023-01-21T15:12:18.424Z,67.73
2023-01-21T15:14:46.842Z,145.17
2023-01-21T15:17:47.361Z,77.07
2023-01-21T15:20:45.143Z,251.40
2023-01-21T15:23:22.568Z,130.13
2023-01-21T15:26:31.666Z,86.80
2023-01-21T15:29:24.413Z,53.80
2023-01-21T15:31:52.889Z,111.17
2023-01-21T15:34:23.605Z,170.50
2023-01-21T15:36:57.939Z,94.17
2023-01-21T15:39:32.585Z,49.93
2023-01-21T15:42:12.867Z,86.77
2023-01-21T15:44:50.923Z,145.47
2023-01-21T15:47:37.616Z,80.43
2023-01-21T15:50:18.153Z,145.93
2023-01-21T15:53:00.209Z,149.77
2023-01-21T15:55:42.535Z,258.23
2023-01-21T15:58:23.794Z,181.53
2023-01-21T16:00:59.378Z,291.73
2023-01-21T16:03:33.327Z,180.33
2023-01-21T16:06:07.670Z,243.80
2023-01-21T16:08:57.631Z,317.77
2023-01-21T16:11:44.045Z,118.57
2023-01-21T16:14:28.448Z,354.53
2023-01-21T16:17:06.998Z,285.43
2023-01-21T16:19:39.074Z,105.90
2023-01-21T16:22:12.061Z,181.67
2023-01-21T16:24:44.522Z,257.90
2023-01-21T16:27:20.202Z,100.80
2023-01-21T16:29:48.403Z,281.87
2023-01-21T16:32:20.785Z,226.07
2023-01-21T16:34:49.305Z,206.63
2023-01-21T16:37:21.200Z,168.80
2023-01-21T16:39:49.370Z,189.80
2023-01-21T16:42:32.397Z,239.57
2023-01-21T16:45:01.002Z,243.40
2023-01-21T16:47:36.515Z,161.80
2023-01-21T16:50:06.439Z,167.63
2023-01-21T16:52:35.924Z,155.07
2023-01-21T16:55:06.080Z,85.10
2023-01-21T16:57:34.163Z,78.40
2023-01-21T17:00:02.904Z,122.40
2023-01-21T17:02:33.084Z,75.40
2023-01-21T17:05:04.697Z,51.13
2023-01-21T17:07:36.647Z,55.87
2023-01-21T17:10:08.359Z,67.13
2023-01-21T17:12:38.447Z,122.47
2023-01-21T17:15:17.647Z,129.97
2023-01-21T17:17:46.382Z,67.03
2023-01-21T17:20:39.516Z,135.37
2023-01-21T17:23:15.955Z,152.57
2023-01-21T17:25:44.511Z,168.70
2023-01-21T17:28:19.339Z,144.10
2023-01-21T17:30:47.933Z,191.23
2023-01-21T17:33:31.122Z,154.63
2023-01-21T17:36:10.434Z,131.30
2023-01-21T17:38:44.706Z,217.67
2023-01-21T17:41:24.761Z,192.30
2023-01-21T17:43:56.635Z,157.30
2023-01-21T17:46:25.983Z,175.60
2023-01-21T17:48:57.205Z,194.10
2023-01-21T17:51:28.607Z,130.57
2023-01-21T17:54:00.830Z,227.70
2023-01-21T17:56:39.648Z,192.90
2023-01-21T17:59:34.039Z,242.57
2023-01-21T18:02:03.014Z,225.30
2023-01-21T18:04:31.365Z,250.87
2023-01-21T18:06:59.813Z,255.10
2023-01-21T18:09:29.362Z,266.07
2023-01-21T18:11:59.474Z,357.93
2023-01-21T18:14:28.931Z,346.23
2023-01-21T18:16:56.951Z,329.63
2023-01-21T18:19:31.540Z,279.60
2023-01-21T18:22:00.396Z,167.07
2023-01-21T18:24:30.132Z,237.03
2023-01-21T18:26:59.667Z,203.63
2023-01-21T18:29:30.397Z,183.47
2023-01-21T18:31:58.929Z,156.50
2023-01-21T18:34:27.233Z,189.93
2023-01-21T18:36:56.955Z,145.47
2023-01-21T18:39:25.816Z,140.90
2023-01-21T18:41:55.448Z,123.37
2023-01-21T18:44:23.618Z,107.20
2023-01-21T18:46:51.915Z,121.97
2023-01-21T18:49:21.358Z,96.17
2023-01-21T18:51:49.510Z,105.70
2023-01-21T18:54:18.698Z,81.10
2023-01-21T18:56:47.490Z,86.27
2023-01-21T18:59:18.402Z,86.73
2023-01-21T19:01:46.566Z,88.90
2023-01-21T19:04:18.385Z,74.53
2023-01-21T19:06:47.756Z,78.43
2023-01-21T19:09:21.270Z,74.03
2023-01-21T19:11:49.280Z,67.77
2023-01-21T19:14:18.790Z,71.43
2023-01-21T19:16:47.494Z,65.33
2023-01-21T19:19:19.063Z,68.57
2023-01-21T19:21:47.733Z,67.23
2023-01-21T19:24:15.727Z,64.13
2023-01-21T19:26:44.035Z,67.97
2023-01-21T19:29:21.431Z,65.97
2023-01-21T19:31:50.844Z,70.47
2023-01-21T19:34:18.955Z,68.60
2023-01-21T19:36:47.633Z,71.87
2023-01-21T19:39:18.824Z,65.70
2023-01-21T19:41:47.671Z,65.23
2023-01-21T19:44:16.692Z,63.60
2023-01-21T19:46:45.454Z,66.20
2023-01-21T19:49:16.752Z,74.17
2023-01-21T19:51:45.692Z,63.87
2023-01-21T19:54:14.171Z,72.73
2023-01-21T19:56:42.201Z,66.73
2023-01-21T19:59:13.777Z,73.00
2023-01-21T20:01:41.871Z,64.97
2023-01-21T20:04:10.717Z,75.87
2023-01-21T20:06:42.060Z,73.37
2023-01-21T20:09:14.657Z,78.97
2023-01-21T20:11:42.747Z,68.37
2023-01-21T20:14:11.037Z,69.27
2023-01-21T20:16:46.317Z,171.40
2023-01-21T20:19:17.036Z,198.57
2023-01-21T20:22:00.337Z,102.73
2023-01-21T20:24:30.297Z,272.57
2023-01-21T20:26:58.601Z,260.17
2023-01-21T20:29:27.466Z,212.83
2023-01-21T20:31:55.736Z,210.43
2023-01-21T20:34:23.760Z,420.50
2023-01-21T20:36:53.818Z,267.63
2023-01-21T20:39:21.806Z,517.83
2023-01-21T20:41:49.967Z,369.27
2023-01-21T20:44:18.104Z,488.87
2023-01-21T20:46:46.664Z,325.20
2023-01-21T20:49:14.815Z,213.93
2023-01-21T20:51:42.870Z,283.33
2023-01-21T20:54:13.248Z,417.03
2023-01-21T20:56:41.905Z,490.43
2023-01-21T20:59:14.764Z,313.90
2023-01-21T21:01:43.301Z,511.83
2023-01-21T21:04:12.461Z,253.97
2023-01-21T21:06:45.903Z,241.57
2023-01-21T21:09:16.370Z,326.93
2023-01-21T21:11:46.533Z,424.87
2023-01-21T21:14:17.924Z,432.53
2023-01-21T21:16:46.991Z,392.57
2023-01-21T21:19:16.121Z,269.97
2023-01-21T21:21:44.780Z,193.70
2023-01-21T21:24:13.453Z,402.33
2023-01-21T21:26:44.718Z,271.03
2023-01-21T21:29:14.635Z,272.83
2023-01-21T21:31:43.581Z,113.50
2023-01-21T21:34:12.146Z,108.53
2023-01-21T21:36:43.371Z,334.87
2023-01-21T21:39:11.620Z,389.33
2023-01-21T21:41:59.498Z,491.73
2023-01-21T21:44:28.103Z,277.37
2023-01-21T21:47:14.083Z,596.30
2023-01-21T21:49:42.361Z,124.47
2023-01-21T21:52:17.221Z,336.60
2023-01-21T21:54:45.647Z,249.97
2023-01-21T21:57:16.112Z,451.27
2023-01-21T21:59:44.560Z,309.17
2023-01-21T22:02:13.551Z,239.03
2023-01-21T22:04:42.477Z,267.87
2023-01-21T22:07:10.702Z,133.13
2023-01-21T22:09:39.006Z,173.23
2023-01-21T22:12:07.815Z,530.80
2023-01-21T22:14:37.540Z,415.27
2023-01-21T22:17:05.612Z,215.83
2023-01-21T22:19:33.599Z,256.70
2023-01-21T22:22:01.721Z,119.00
2023-01-21T22:24:29.684Z,140.50
2023-01-21T22:26:57.864Z,155.80
2023-01-21T22:29:26.431Z,155.97
2023-01-21T22:31:56.374Z,377.90
2023-01-21T22:34:24.595Z,222.93
2023-01-21T22:36:52.923Z,185.07
2023-01-21T22:39:22.617Z,71.53
2023-01-21T22:41:50.575Z,72.70
2023-01-21T22:44:18.767Z,89.80
2023-01-21T22:46:47.875Z,249.47
2023-01-21T22:49:17.799Z,49.87
2023-01-21T22:51:45.832Z,216.83
2023-01-21T22:54:14.055Z,40.90
2023-01-21T22:56:52.052Z,52.20
2023-01-21T22:59:20.721Z,73.53
2023-01-21T23:01:51.137Z,48.83
2023-01-21T23:04:20.953Z,51.07
2023-01-21T23:06:51.218Z,55.10
2023-01-21T23:09:19.186Z,50.23
2023-01-21T23:11:47.458Z,45.67
2023-01-21T23:14:16.504Z,48.27
2023-01-21T23:16:44.652Z,43.77
2023-01-21T23:19:13.003Z,41.53
2023-01-21T23:21:42.822Z,46.70
2023-01-21T23:24:11.229Z,43.10
2023-01-21T23:26:39.747Z,44.30
2023-01-21T23:29:07.892Z,42.63
2023-01-21T23:31:36.222Z,45.40
2023-01-21T23:34:04.557Z,40.40
2023-01-21T23:36:32.617Z,41.93
2023-01-21T23:39:01.996Z,41.37
2023-01-21T23:41:30.223Z,41.53
2023-01-21T23:44:00.381Z,40.27
2023-01-21T23:46:28.708Z,43.23
2023-01-21T23:48:56.825Z,42.63
2023-01-21T23:51:24.901Z,44.73
2023-01-21T23:53:53.008Z,41.70
2023-01-21T23:56:26.700Z,40.17
2023-01-21T23:58:55.272Z,45.37
